createdAt,value
2023-04-08T00:00:24.045Z,3.12
2023-04-08T00:02:53.641Z,3.10
2023-04-08T00:05:22.091Z,3.08
2023-04-08T00:07:51.890Z,3.02
2023-04-08T00:10:20.641Z,2.93
2023-04-08T00:12:48.822Z,2.94
2023-04-08T00:15:17.271Z,3.03
2023-04-08T00:17:46.563Z,3.09
2023-04-08T00:20:15.719Z,3.07
2023-04-08T00:22:44.053Z,3.05
2023-04-08T00:25:12.362Z,3.03
2023-04-08T00:27:42.388Z,3.09
2023-04-08T00:30:11.763Z,3.19
2023-04-08T00:32:40.451Z,3.26
2023-04-08T00:35:09.263Z,3.27
2023-04-08T00:37:37.600Z,3.27
2023-04-08T00:40:11.239Z,3.27
2023-04-08T00:42:40.505Z,3.26
2023-04-08T00:45:11.694Z,3.32
2023-04-08T00:47:40.157Z,3.40
2023-04-08T00:50:09.786Z,3.42
2023-04-08T00:52:40.114Z,3.42
2023-04-08T00:55:10.233Z,3.40
2023-04-08T00:57:38.751Z,3.38
2023-04-08T01:00:09.789Z,3.36
2023-04-08T01:02:48.031Z,3.40
2023-04-08T01:05:31.253Z,3.48
2023-04-08T01:07:59.554Z,3.50
2023-04-08T01:10:30.228Z,3.47
2023-04-08T01:13:04.220Z,3.43
2023-04-08T01:15:32.650Z,3.41
2023-04-08T01:18:01.855Z,3.37
2023-04-08T01:20:30.718Z,3.39
2023-04-08T01:23:03.743Z,3.46
2023-04-08T01:25:32.917Z,3.46
2023-04-08T01:28:11.668Z,3.45
2023-04-08T01:30:41.027Z,3.42
2023-04-08T01:33:13.706Z,3.41
2023-04-08T01:35:47.682Z,3.42
2023-04-08T01:38:18.748Z,3.40
2023-04-08T01:40:49.561Z,3.28
2023-04-08T01:43:21.024Z,3.14
2023-04-08T01:45:49.468Z,3.06
2023-04-08T01:48:18.005Z,3.04
2023-04-08T01:50:46.553Z,3.07
2023-04-08T01:53:15.059Z,3.16
2023-04-08T01:55:46.205Z,3.22
2023-04-08T01:58:20.429Z,3.24
2023-04-08T02:00:49.814Z,3.25
2023-04-08T02:03:19.584Z,3.24
2023-04-08T02:05:48.564Z,3.29
2023-04-08T02:08:16.915Z,3.36
2023-04-08T02:10:47.436Z,3.41
2023-04-08T02:13:16.123Z,3.39
2023-04-08T02:15:48.627Z,3.36
2023-04-08T02:18:24.284Z,3.32
2023-04-08T02:21:13.725Z,3.33
2023-04-08T02:23:42.523Z,3.38
2023-04-08T02:26:14.573Z,3.39
2023-04-08T02:28:43.236Z,3.37
2023-04-08T02:31:15.898Z,3.34
2023-04-08T02:33:49.686Z,3.31
2023-04-08T02:36:18.405Z,3.33
2023-04-08T02:38:50.476Z,3.39
2023-04-08T02:41:21.415Z,3.42
2023-04-08T02:43:51.964Z,3.41
2023-04-08T02:46:21.745Z,3.39
2023-04-08T02:48:50.849Z,3.36
2023-04-08T02:51:21.792Z,3.31
2023-04-08T02:53:50.402Z,3.32
2023-04-08T02:56:18.760Z,3.37
2023-04-08T02:58:47.605Z,3.37
2023-04-08T03:01:16.578Z,3.35
2023-04-08T03:03:45.926Z,3.32
2023-04-08T03:06:14.276Z,3.28
2023-04-08T03:08:42.914Z,3.29
2023-04-08T03:26:22.513Z,4.06
2023-04-08T03:28:51.702Z,4.05
2023-04-08T03:31:21.560Z,3.93
2023-04-08T03:33:52.196Z,3.86
2023-04-08T03:36:22.096Z,3.76
2023-04-08T03:38:54.222Z,3.62
2023-04-08T03:41:22.524Z,3.47
2023-04-08T03:43:50.776Z,3.36
2023-04-08T03:46:19.183Z,3.31
2023-04-08T03:48:48.183Z,3.31
2023-04-08T03:51:22.428Z,3.28
2023-04-08T03:53:53.937Z,3.22
2023-04-08T03:56:22.527Z,3.15
2023-04-08T03:58:51.128Z,3.07
2023-04-08T04:02:45.027Z,2.99
2023-04-08T04:05:13.713Z,2.97
2023-04-08T04:07:44.035Z,3.02
2023-04-08T04:10:20.282Z,3.02
2023-04-08T04:12:50.453Z,2.99
2023-04-08T04:15:31.236Z,2.96
2023-04-08T04:17:59.743Z,2.93
2023-04-08T04:20:30.426Z,2.97
2023-04-08T04:22:58.738Z,2.98
2023-04-08T04:25:27.314Z,2.94
2023-04-08T04:27:59.276Z,2.88
2023-04-08T04:30:32.280Z,2.84
2023-04-08T04:33:11.143Z,2.79
2023-04-08T04:35:40.730Z,2.80
2023-04-08T04:38:12.707Z,2.80
2023-04-08T04:40:42.140Z,2.78
2023-04-08T04:43:11.096Z,2.75
2023-04-08T04:45:47.574Z,2.76
2023-04-08T04:48:16.764Z,2.77
2023-04-08T04:50:45.829Z,2.82
2023-04-08T04:53:20.476Z,2.90
2023-04-08T04:56:08.002Z,2.97
2023-04-08T04:58:39.479Z,2.95
2023-04-08T05:01:08.524Z,2.93
2023-04-08T05:03:37.775Z,2.90
2023-04-08T05:06:13.439Z,2.93
2023-04-08T05:08:42.170Z,3.02
2023-04-08T05:11:11.219Z,3.05
2023-04-08T05:13:48.186Z,3.03
2023-04-08T05:16:18.975Z,3.00
2023-04-08T05:18:48.513Z,2.93
2023-04-08T05:21:24.192Z,2.92
2023-04-08T05:23:53.974Z,2.96
2023-04-08T05:26:22.520Z,2.98
2023-04-08T05:28:52.082Z,2.99
2023-04-08T05:31:21.231Z,2.98
2023-04-08T05:33:49.553Z,2.96
2023-04-08T05:36:19.286Z,3.01
2023-04-08T05:38:47.575Z,3.11
2023-04-08T05:41:16.073Z,3.18
2023-04-08T05:43:44.271Z,3.21
2023-04-08T05:46:12.552Z,3.23
2023-04-08T05:48:41.024Z,3.22
2023-04-08T05:51:18.053Z,3.26
2023-04-08T05:53:47.361Z,3.37
2023-04-08T05:56:15.989Z,3.44
2023-04-08T05:58:46.855Z,3.50
2023-04-08T06:01:16.155Z,3.51
2023-04-08T06:03:45.085Z,3.52
2023-04-08T06:06:14.540Z,3.58
2023-04-08T06:08:43.444Z,3.62
2023-04-08T06:11:15.575Z,3.58
2023-04-08T06:13:45.582Z,3.54
2023-04-08T06:16:20.283Z,3.50
2023-04-08T06:18:52.607Z,3.41
2023-04-08T06:21:21.726Z,3.38
2023-04-08T06:23:50.267Z,3.40
2023-04-08T06:26:19.131Z,3.42
2023-04-08T06:28:48.249Z,3.40
2023-04-08T06:31:17.696Z,3.33
2023-04-08T06:33:47.646Z,3.27
2023-04-08T06:36:16.486Z,3.30
2023-04-08T06:38:45.760Z,3.39
2023-04-08T06:41:14.120Z,3.45
2023-04-08T06:43:43.132Z,3.42
2023-04-08T06:46:11.993Z,3.38
2023-04-08T06:48:42.027Z,3.33
2023-04-08T06:51:11.610Z,3.33
2023-04-08T06:53:42.573Z,3.38
2023-04-08T06:56:11.580Z,3.42
2023-04-08T06:58:41.425Z,3.46
2023-04-08T07:01:12.915Z,3.53
2023-04-08T07:03:42.617Z,3.61
2023-04-08T07:06:12.006Z,3.75
2023-04-08T07:08:40.776Z,3.89
2023-04-08T07:11:12.462Z,3.97
2023-04-08T07:13:41.215Z,4.04
2023-04-08T07:16:10.561Z,4.12
2023-04-08T07:18:41.826Z,4.17
2023-04-08T07:21:13.692Z,4.22
2023-04-08T07:23:42.834Z,4.34
2023-04-08T07:26:13.178Z,4.47
2023-04-08T07:28:43.452Z,4.53
2023-04-08T07:31:13.639Z,4.53
2023-04-08T07:33:42.043Z,4.53
2023-04-08T07:36:11.747Z,4.55
2023-04-08T07:38:41.407Z,4.58
2023-04-08T07:41:12.099Z,4.68
2023-04-08T07:43:40.607Z,4.80
2023-04-08T07:46:10.052Z,4.92
2023-04-08T07:48:38.916Z,4.98
2023-04-08T07:51:11.471Z,4.99
2023-04-08T07:53:46.829Z,4.94
2023-04-08T07:56:18.995Z,4.90
2023-04-08T07:58:52.907Z,4.93
2023-04-08T08:01:22.747Z,5.00
2023-04-08T08:03:53.288Z,5.07
2023-04-08T08:06:22.475Z,5.10
2023-04-08T08:08:52.854Z,5.06
2023-04-08T08:11:22.699Z,5.03
2023-04-08T08:13:53.691Z,5.01
2023-04-08T08:16:28.662Z,4.98
2023-04-08T08:18:57.254Z,5.02
2023-04-08T08:21:27.407Z,5.09
2023-04-08T08:23:58.564Z,5.13
2023-04-08T08:26:27.480Z,5.17
2023-04-08T08:29:02.145Z,5.21
2023-04-08T08:31:31.326Z,5.23
2023-04-08T08:33:59.882Z,5.24
2023-04-08T08:36:30.234Z,5.34
2023-04-08T08:39:00.462Z,5.44
2023-04-08T08:41:37.994Z,5.49
2023-04-08T08:44:08.197Z,5.52
2023-04-08T08:47:24.518Z,5.55
2023-04-08T08:49:53.855Z,5.58
2023-04-08T08:52:28.742Z,5.62
2023-04-08T08:56:13.479Z,5.70
2023-04-08T08:58:04.852Z,5.64
2023-04-08T09:01:11.132Z,5.60
2023-04-08T09:03:57.647Z,5.54
2023-04-08T09:06:34.695Z,5.50
2023-04-08T09:09:24.839Z,5.52
2023-04-08T09:12:04.682Z,5.50
2023-04-08T09:14:34.113Z,5.46
2023-04-08T09:17:02.304Z,5.43
2023-04-08T09:19:38.263Z,5.41
2023-04-08T09:22:10.552Z,5.46
2023-04-08T09:24:39.220Z,5.55
2023-04-08T09:27:13.949Z,5.60
2023-04-08T09:29:49.034Z,5.61
2023-04-08T09:32:18.396Z,5.66
2023-04-08T09:34:52.373Z,5.71
2023-04-08T09:37:21.461Z,5.80
2023-04-08T09:39:52.352Z,5.92
2023-04-08T09:42:22.037Z,5.99
2023-04-08T09:44:51.442Z,5.99
2023-04-08T09:47:20.871Z,5.94
2023-04-08T09:54:19.104Z,5.86
2023-04-08T09:57:06.289Z,5.97
2023-04-08T09:59:37.588Z,5.95
2023-04-08T10:02:08.195Z,5.91
2023-04-08T10:04:40.976Z,5.89
2023-04-08T10:07:10.032Z,5.88
2023-04-08T10:09:43.257Z,5.86
2023-04-08T10:12:14.031Z,5.90
2023-04-08T10:14:42.651Z,5.95
2023-04-08T10:17:36.925Z,5.96
2023-04-08T10:20:05.862Z,5.91
2023-04-08T10:22:34.573Z,5.88
2023-04-08T10:25:26.060Z,5.94
2023-04-08T10:28:00.086Z,6.04
2023-04-08T10:30:28.810Z,6.17
2023-04-08T10:33:00.427Z,6.29
2023-04-08T10:35:37.258Z,6.32
2023-04-08T10:38:05.858Z,6.26
2023-04-08T10:40:39.177Z,6.22
2023-04-08T10:43:09.353Z,6.21
2023-04-08T10:45:38.948Z,6.18
2023-04-08T10:48:17.957Z,6.17
2023-04-08T10:51:16.893Z,6.27
2023-04-08T10:53:45.319Z,6.30
2023-04-08T10:56:44.729Z,6.25
2023-04-08T10:59:16.516Z,6.16
2023-04-08T11:01:47.539Z,6.07
2023-04-08T11:04:20.289Z,6.07
2023-04-08T11:06:52.202Z,6.18
2023-04-08T11:09:20.975Z,6.33
2023-04-08T11:11:49.444Z,6.44
2023-04-08T11:14:22.166Z,6.52
2023-04-08T11:16:50.356Z,6.51
2023-04-08T11:19:21.384Z,6.39
2023-04-08T11:21:50.933Z,6.33
2023-04-08T11:24:19.145Z,6.29
2023-04-08T11:26:48.051Z,6.31
2023-04-08T11:29:17.170Z,6.38
2023-04-08T11:31:47.302Z,6.45
2023-04-08T11:34:22.862Z,6.50
2023-04-08T11:36:54.280Z,6.56
2023-04-08T11:39:25.895Z,6.61
2023-04-08T11:41:55.411Z,6.66
2023-04-08T11:44:33.524Z,6.68
2023-04-08T11:47:07.355Z,6.74
2023-04-08T11:49:47.735Z,6.74
2023-04-08T11:52:15.933Z,6.71
2023-04-08T11:54:44.891Z,6.67
2023-04-08T11:57:15.590Z,6.64
2023-04-08T11:59:44.266Z,6.62
2023-04-08T12:02:12.579Z,6.64
2023-04-08T12:04:43.147Z,6.68
2023-04-08T12:07:14.244Z,6.81
2023-04-08T12:09:44.576Z,6.91
2023-04-08T12:12:16.063Z,6.94
2023-04-08T12:14:44.590Z,6.91
2023-04-08T12:17:17.972Z,6.91
2023-04-08T12:19:48.605Z,6.94
2023-04-08T12:22:17.832Z,6.98
2023-04-08T12:24:47.467Z,7.00
2023-04-08T12:27:16.045Z,7.09
2023-04-08T12:29:47.372Z,7.27
2023-04-08T12:32:18.576Z,7.40
2023-04-08T12:34:48.565Z,7.45
2023-04-08T12:37:17.466Z,7.48
2023-04-08T12:39:50.211Z,7.48
2023-04-08T12:42:28.118Z,7.46
2023-04-08T12:44:58.765Z,7.44
2023-04-08T12:47:30.024Z,7.44
2023-04-08T12:50:04.543Z,7.45
2023-04-08T12:52:33.945Z,7.45
2023-04-08T12:55:05.267Z,7.49
2023-04-08T12:57:55.380Z,7.61
2023-04-08T13:00:29.103Z,7.73
2023-04-08T13:03:06.565Z,7.75
2023-04-08T13:05:43.094Z,7.79
2023-04-08T13:08:28.244Z,7.81
2023-04-08T13:11:01.581Z,7.83
2023-04-08T13:13:35.084Z,7.87
2023-04-08T13:16:04.216Z,7.93
2023-04-08T13:18:38.976Z,7.97
2023-04-08T13:21:11.028Z,7.97
2023-04-08T13:23:40.281Z,7.99
2023-04-08T13:26:09.569Z,7.99
2023-04-08T13:28:53.638Z,7.99
2023-04-08T13:31:37.771Z,7.98
2023-04-08T13:34:06.504Z,7.97
2023-04-08T13:36:43.319Z,7.94
2023-04-08T13:39:13.231Z,7.91
2023-04-08T13:41:42.262Z,7.87
2023-04-08T13:44:11.540Z,7.83
2023-04-08T13:46:42.460Z,7.84
2023-04-08T13:49:13.987Z,7.90
2023-04-08T13:51:43.655Z,7.97
2023-04-08T13:54:16.719Z,7.97
2023-04-08T13:56:47.788Z,7.92
2023-04-08T13:59:16.914Z,7.87
2023-04-08T14:01:46.149Z,7.87
2023-04-08T14:04:15.648Z,7.87
2023-04-08T14:06:45.466Z,7.91
2023-04-08T14:09:14.655Z,7.95
2023-04-08T14:11:45.546Z,7.95
2023-04-08T14:14:17.713Z,7.92
2023-04-08T14:16:46.498Z,7.89
2023-04-08T14:19:15.461Z,7.91
2023-04-08T14:21:45.761Z,7.93
2023-04-08T14:24:14.048Z,7.95
2023-04-08T14:26:42.489Z,7.94
2023-04-08T14:29:16.689Z,7.92
2023-04-08T14:31:46.386Z,7.87
2023-04-08T14:34:18.067Z,7.86
2023-04-08T14:36:47.338Z,7.88
2023-04-08T14:39:15.536Z,7.88
2023-04-08T14:41:44.579Z,7.90
2023-04-08T14:44:17.146Z,7.92
2023-04-08T14:46:47.939Z,7.96
2023-04-08T14:49:18.805Z,7.96
2023-04-08T14:51:50.010Z,7.97
2023-04-08T14:54:21.916Z,7.99
2023-04-08T14:56:51.358Z,8.01
2023-04-08T14:59:22.893Z,8.01
2023-04-08T15:01:51.533Z,7.96
2023-04-08T15:04:20.197Z,7.91
2023-04-08T15:06:49.953Z,7.87
2023-04-08T15:09:19.570Z,7.84
2023-04-08T15:11:47.702Z,7.81
2023-04-08T15:14:22.611Z,7.79
2023-04-08T15:16:50.919Z,7.79
2023-04-08T15:19:20.557Z,7.87
2023-04-08T15:21:51.437Z,7.97
2023-04-08T15:24:20.153Z,8.02
2023-04-08T15:26:48.971Z,8.05
2023-04-08T15:29:23.357Z,8.04
2023-04-08T15:31:55.102Z,8.03
2023-04-08T15:34:23.217Z,8.02
2023-04-08T15:36:52.033Z,8.00
2023-04-08T15:39:20.727Z,7.97
2023-04-08T15:41:52.696Z,7.92
2023-04-08T15:44:20.979Z,7.89
2023-04-08T15:46:49.153Z,7.84
2023-04-08T15:49:18.304Z,7.81
2023-04-08T15:51:49.790Z,7.78
2023-04-08T15:54:21.244Z,7.74
2023-04-08T15:56:49.917Z,7.72
2023-04-08T15:59:18.813Z,7.74
2023-04-08T16:02:09.147Z,7.79
2023-04-08T16:04:37.470Z,7.79
2023-04-08T16:07:05.692Z,7.79
2023-04-08T16:09:33.925Z,7.77
2023-04-08T16:12:05.385Z,7.73
2023-04-08T16:14:34.228Z,7.70
2023-04-08T16:17:02.497Z,7.66
2023-04-08T16:20:31.838Z,7.65
2023-04-08T16:23:00.006Z,7.58
2023-04-08T16:25:28.443Z,7.52
2023-04-08T16:28:00.638Z,7.45
2023-04-08T16:30:30.118Z,7.37
2023-04-08T16:33:01.054Z,7.31
2023-04-08T16:35:31.712Z,7.31
2023-04-08T16:38:00.283Z,7.35
2023-04-08T16:40:33.292Z,7.38
2023-04-08T16:43:01.967Z,7.39
2023-04-08T16:45:32.805Z,7.39
2023-04-08T16:48:01.112Z,7.38
2023-04-08T16:50:32.444Z,7.36
2023-04-08T16:54:16.902Z,7.35
2023-04-08T16:56:51.017Z,7.32
2023-04-08T16:59:19.357Z,7.30
2023-04-08T17:01:47.609Z,7.27
2023-04-08T17:04:17.700Z,7.30
2023-04-08T17:06:47.315Z,7.38
2023-04-08T17:09:16.194Z,7.44
2023-04-08T17:18:08.194Z,7.42
2023-04-08T17:20:39.222Z,7.35
2023-04-08T17:23:11.772Z,7.30
2023-04-08T17:26:03.064Z,7.25
2023-04-08T17:28:32.630Z,7.18
2023-04-08T17:31:03.145Z,7.11
2023-04-08T17:33:34.410Z,7.09
2023-04-08T17:36:02.890Z,7.08
2023-04-08T17:38:32.469Z,7.04
2023-04-08T17:41:01.231Z,6.99
2023-04-08T17:43:33.959Z,6.95
2023-04-08T17:46:02.254Z,6.91
2023-04-08T17:48:30.889Z,6.86
2023-04-08T17:51:03.158Z,6.81
2023-04-08T17:53:32.802Z,6.77
2023-04-08T17:56:06.081Z,6.72
2023-04-08T17:58:36.292Z,6.73
2023-04-08T18:01:08.061Z,6.77
2023-04-08T18:03:37.815Z,6.79
2023-04-08T18:06:09.496Z,6.78
2023-04-08T18:08:38.762Z,6.75
2023-04-08T18:11:11.480Z,6.71
2023-04-08T18:13:39.696Z,6.66
2023-04-08T18:16:21.762Z,6.60
2023-04-08T18:18:52.816Z,6.53
2023-04-08T18:21:22.386Z,6.48
2023-04-08T18:23:51.487Z,6.48
2023-04-08T18:26:21.689Z,6.51
2023-04-08T18:28:50.610Z,6.52
2023-04-08T18:31:19.811Z,6.51
2023-04-08T18:33:50.616Z,6.47
2023-04-08T18:36:20.920Z,6.43
2023-04-08T18:38:50.159Z,6.37
2023-04-08T18:41:24.481Z,6.33
2023-04-08T18:43:53.141Z,6.28
2023-04-08T18:46:24.594Z,6.28
2023-04-08T18:48:53.897Z,6.32
2023-04-08T18:51:26.480Z,6.31
2023-04-08T18:53:56.320Z,6.26
2023-04-08T18:56:25.284Z,6.18
2023-04-08T18:58:57.380Z,6.09
2023-04-08T19:01:31.445Z,5.99
2023-04-08T19:04:02.442Z,5.91
2023-04-08T19:06:36.101Z,5.83
2023-04-08T19:09:04.565Z,5.81
2023-04-08T19:11:36.428Z,5.81
2023-04-08T19:14:05.616Z,5.77
2023-04-08T19:16:41.247Z,5.70
2023-04-08T19:19:11.853Z,5.63
2023-04-08T19:21:44.309Z,5.56
2023-04-08T19:24:20.920Z,5.48
2023-04-08T19:26:51.507Z,5.40
2023-04-08T19:29:23.363Z,5.38
2023-04-08T19:31:53.819Z,5.40
2023-04-08T19:34:22.233Z,5.39
2023-04-08T19:36:50.940Z,5.33
2023-04-08T19:39:20.852Z,5.27
2023-04-08T19:41:49.100Z,5.21
2023-04-08T19:44:18.037Z,5.15
2023-04-08T19:46:46.334Z,5.09
2023-04-08T19:49:15.048Z,5.02
2023-04-08T19:51:43.683Z,5.00
2023-04-08T19:54:14.720Z,5.02
2023-04-08T19:56:44.260Z,5.00
2023-04-08T19:59:12.560Z,4.96
2023-04-08T20:01:43.206Z,4.90
2023-04-08T20:04:12.094Z,4.83
2023-04-08T20:06:40.828Z,4.76
2023-04-08T20:09:10.009Z,4.70
2023-04-08T20:11:38.265Z,4.69
2023-04-08T20:14:09.731Z,4.72
2023-04-08T20:16:38.676Z,4.72
2023-04-08T20:19:14.122Z,4.70
2023-04-08T20:21:45.947Z,4.65
2023-04-08T20:24:16.843Z,4.59
2023-04-08T20:26:45.277Z,4.50
2023-04-08T20:29:17.807Z,4.40
2023-04-08T20:31:46.068Z,4.38
2023-04-08T20:34:18.306Z,4.39
2023-04-08T20:36:47.666Z,4.38
2023-04-08T20:39:16.453Z,4.34
2023-04-08T20:41:47.046Z,4.29
2023-04-08T20:44:16.470Z,4.21
2023-04-08T20:46:47.508Z,4.15
2023-04-08T20:49:19.681Z,4.06
2023-04-08T20:51:48.035Z,4.05
2023-04-08T20:54:17.993Z,4.09
2023-04-08T20:56:47.368Z,4.08
2023-04-08T20:59:18.072Z,4.02
2023-04-08T21:01:48.168Z,3.97
2023-04-08T21:04:17.030Z,3.92
2023-04-08T21:06:45.268Z,3.88
2023-04-08T21:09:15.096Z,3.83
2023-04-08T21:11:43.897Z,3.84
2023-04-08T21:14:16.011Z,3.89
2023-04-08T21:16:46.931Z,3.88
2023-04-08T21:19:15.741Z,3.86
2023-04-08T21:21:49.891Z,3.79
2023-04-08T21:24:18.146Z,3.72
2023-04-08T21:26:46.912Z,3.67
2023-04-08T21:29:15.648Z,3.63
2023-04-08T21:31:43.994Z,3.65
2023-04-08T21:34:13.583Z,3.72
2023-04-08T21:36:41.963Z,3.75
2023-04-08T21:39:10.144Z,3.72
2023-04-08T21:41:38.898Z,3.67
2023-04-08T21:44:07.425Z,3.62
2023-04-08T21:46:35.707Z,3.58
2023-04-08T21:49:03.890Z,3.60
2023-04-08T21:51:32.169Z,3.66
2023-04-08T21:54:00.336Z,3.66
2023-04-08T21:56:28.825Z,3.62
2023-04-08T21:58:57.231Z,3.58
2023-04-08T22:01:25.445Z,3.52
2023-04-08T22:03:55.703Z,3.45
2023-04-08T22:06:32.181Z,3.41
2023-04-08T22:09:01.340Z,3.42
2023-04-08T22:11:31.018Z,3.47
2023-04-08T22:13:59.644Z,3.50
2023-04-08T22:16:28.010Z,3.47
2023-04-08T22:18:56.575Z,3.42
2023-04-08T22:21:30.362Z,3.35
2023-04-08T22:23:59.800Z,3.29
2023-04-08T22:26:29.182Z,3.23
2023-04-08T22:28:59.847Z,3.25
2023-04-08T22:31:29.822Z,3.30
2023-04-08T22:33:59.668Z,3.29
2023-04-08T22:36:27.849Z,3.24
2023-04-08T22:38:56.579Z,3.19
2023-04-08T22:41:25.064Z,3.13
2023-04-08T22:43:53.906Z,3.07
2023-04-08T22:46:22.378Z,3.00
2023-04-08T22:49:18.982Z,3.02
2023-04-08T22:51:47.618Z,3.09
2023-04-08T22:54:15.873Z,3.12
2023-04-08T23:01:41.667Z,3.04
2023-04-08T23:04:10.158Z,2.97
2023-04-08T23:06:38.458Z,2.94
2023-04-08T23:09:06.665Z,2.96
2023-04-08T23:11:35.019Z,3.03
2023-04-08T23:14:05.405Z,3.05
2023-04-08T23:16:36.160Z,3.04
2023-04-08T23:19:04.535Z,3.01
2023-04-08T23:21:36.796Z,2.97
2023-04-08T23:24:05.575Z,2.92
2023-04-08T23:26:34.025Z,2.84
2023-04-08T23:29:07.470Z,2.84
2023-04-08T23:31:36.043Z,2.85
2023-04-08T23:34:05.239Z,2.81
2023-04-08T23:36:45.230Z,2.76
2023-04-08T23:39:13.963Z,2.68
2023-04-08T23:41:42.471Z,2.61
2023-04-08T23:44:17.526Z,2.54
2023-04-08T23:46:46.494Z,2.48
2023-04-08T23:49:15.568Z,2.48
2023-04-08T23:51:46.932Z,2.52
2023-04-08T23:54:17.318Z,2.53
2023-04-08T23:56:49.328Z,2.50
2023-04-08T23:59:18.101Z,2.46
